Laurel, Nebraska
Current Conditions -  °F | °C
As of 2:55 AM on Wednesday 26 Nov 2014 (Local Time) from KLCG Reporting Station
Overcast Overcast  
Wind Chill: 28°   Ceiling: 2000
Heat Index: 37°   Visibility: 10mi
Dew Point: 34°   Wind: 14mph
Humidity: 88%   Direction: 320°NW
Pressure: 29.85"   Gusts: NA
Location:  42.43°N, 97.09°W
Report Text: KLCG 260855Z AUTO 32012KT 10SM OVC020 03/01 A2985 RMK AO2 T00280010
Loading
Personal Weather Stations






























Interactive Weather Map New forecast layout! Learn more

10-Day Weather Forecast

Advertisements
Track Severe Weather on mobile